sensor_id;sensor_type;location;lat;lon;timestamp;temperature;humidity
4960;DHT22;2495;48.200;11.532;2023-02-12T00:02:06;8.10;61.20
4960;DHT22;2495;48.200;11.532;2023-02-12T00:07:08;8.00;62.00
4960;DHT22;2495;48.200;11.532;2023-02-12T00:12:09;8.00;61.80
4960;DHT22;2495;48.200;11.532;2023-02-12T00:17:10;8.00;62.00
4960;DHT22;2495;48.200;11.532;2023-02-12T00:22:12;7.90;62.10
4960;DHT22;2495;48.200;11.532;2023-02-12T00:27:13;7.90;62.40
4960;DHT22;2495;48.200;11.532;2023-02-12T00:32:14;7.90;63.20
4960;DHT22;2495;48.200;11.532;2023-02-12T00:37:15;8.00;62.50
4960;DHT22;2495;48.200;11.532;2023-02-12T00:42:17;7.90;62.80
4960;DHT22;2495;48.200;11.532;2023-02-12T00:47:18;7.90;63.10
4960;DHT22;2495;48.200;11.532;2023-02-12T00:52:19;8.00;64.30
4960;DHT22;2495;48.200;11.532;2023-02-12T00:57:20;8.00;63.40
4960;DHT22;2495;48.200;11.532;2023-02-12T01:02:21;8.10;62.90
4960;DHT22;2495;48.200;11.532;2023-02-12T01:07:23;8.20;63.70
4960;DHT22;2495;48.200;11.532;2023-02-12T01:12:24;8.20;62.90
4960;DHT22;2495;48.200;11.532;2023-02-12T01:17:25;8.10;62.60
4960;DHT22;2495;48.200;11.532;2023-02-12T01:22:26;8.10;62.60
4960;DHT22;2495;48.200;11.532;2023-02-12T01:27:28;8.00;62.70
4960;DHT22;2495;48.200;11.532;2023-02-12T01:32:29;7.90;62.90
4960;DHT22;2495;48.200;11.532;2023-02-12T01:37:30;7.90;62.70
4960;DHT22;2495;48.200;11.532;2023-02-12T01:42:31;7.90;62.80
4960;DHT22;2495;48.200;11.532;2023-02-12T01:47:32;8.00;62.70
4960;DHT22;2495;48.200;11.532;2023-02-12T01:52:34;7.90;62.70
4960;DHT22;2495;48.200;11.532;2023-02-12T01:57:39;7.90;62.60
4960;DHT22;2495;48.200;11.532;2023-02-12T02:02:39;7.80;63.20
4960;DHT22;2495;48.200;11.532;2023-02-12T02:07:41;7.80;63.40
4960;DHT22;2495;48.200;11.532;2023-02-12T02:12:42;7.80;63.40
4960;DHT22;2495;48.200;11.532;2023-02-12T02:18:05;7.80;63.40
4960;DHT22;2495;48.200;11.532;2023-02-12T02:33:55;7.70;64.10
4960;DHT22;2495;48.200;11.532;2023-02-12T02:44:10;7.50;65.20
4960;DHT22;2495;48.200;11.532;2023-02-12T02:49:12;7.60;64.80
4960;DHT22;2495;48.200;11.532;2023-02-12T02:59:22;7.70;64.90
4960;DHT22;2495;48.200;11.532;2023-02-12T03:04:24;7.80;66.10
4960;DHT22;2495;48.200;11.532;2023-02-12T03:09:28;8.00;65.00
4960;DHT22;2495;48.200;11.532;2023-02-12T03:14:36;8.10;64.70
4960;DHT22;2495;48.200;11.532;2023-02-12T03:19:38;7.90;64.60
4960;DHT22;2495;48.200;11.532;2023-02-12T03:24:42;7.90;64.30
4960;DHT22;2495;48.200;11.532;2023-02-12T03:29:41;7.90;64.70
4960;DHT22;2495;48.200;11.532;2023-02-12T03:34:50;7.90;64.30
4960;DHT22;2495;48.200;11.532;2023-02-12T03:39:57;7.90;64.80
4960;DHT22;2495;48.200;11.532;2023-02-12T03:55:21;7.70;64.90
4960;DHT22;2495;48.200;11.532;2023-02-12T04:00:23;7.70;64.80
4960;DHT22;2495;48.200;11.532;2023-02-12T04:05:25;7.70;65.50
4960;DHT22;2495;48.200;11.532;2023-02-12T04:10:27;7.70;65.00
4960;DHT22;2495;48.200;11.532;2023-02-12T04:15:42;7.70;65.10
4960;DHT22;2495;48.200;11.532;2023-02-12T04:20:50;7.80;65.60
4960;DHT22;2495;48.200;11.532;2023-02-12T04:31:28;8.10;65.90
4960;DHT22;2495;48.200;11.532;2023-02-12T04:36:57;8.00;65.60
4960;DHT22;2495;48.200;11.532;2023-02-12T04:41:57;7.90;65.80
4960;DHT22;2495;48.200;11.532;2023-02-12T04:46:58;7.70;66.10
4960;DHT22;2495;48.200;11.532;2023-02-12T04:51:59;7.70;66.10
4960;DHT22;2495;48.200;11.532;2023-02-12T04:57:01;7.70;66.60
4960;DHT22;2495;48.200;11.532;2023-02-12T05:02:05;7.70;65.90
4960;DHT22;2495;48.200;11.532;2023-02-12T05:07:09;7.70;66.10
4960;DHT22;2495;48.200;11.532;2023-02-12T05:12:12;7.70;66.60
4960;DHT22;2495;48.200;11.532;2023-02-12T05:17:14;7.70;66.90
4960;DHT22;2495;48.200;11.532;2023-02-12T05:22:21;8.00;67.90
4960;DHT22;2495;48.200;11.532;2023-02-12T05:27:22;8.10;67.00
4960;DHT22;2495;48.200;11.532;2023-02-12T05:32:23;8.10;67.10
4960;DHT22;2495;48.200;11.532;2023-02-12T05:37:24;8.00;66.90
4960;DHT22;2495;48.200;11.532;2023-02-12T05:42:27;8.10;68.20
4960;DHT22;2495;48.200;11.532;2023-02-12T05:47:27;8.10;67.50
4960;DHT22;2495;48.200;11.532;2023-02-12T05:52:28;8.10;67.80
4960;DHT22;2495;48.200;11.532;2023-02-12T05:57:29;8.00;68.00
4960;DHT22;2495;48.200;11.532;2023-02-12T06:02:32;7.80;68.60
4960;DHT22;2495;48.200;11.532;2023-02-12T06:07:32;7.70;69.00
4960;DHT22;2495;48.200;11.532;2023-02-12T06:12:33;7.60;69.30
4960;DHT22;2495;48.200;11.532;2023-02-12T06:17:34;7.60;70.10
4960;DHT22;2495;48.200;11.532;2023-02-12T06:22:35;7.70;71.50
4960;DHT22;2495;48.200;11.532;2023-02-12T06:27:37;7.80;71.10
4960;DHT22;2495;48.200;11.532;2023-02-12T06:32:38;7.70;71.20
4960;DHT22;2495;48.200;11.532;2023-02-12T06:37:39;7.60;71.70
4960;DHT22;2495;48.200;11.532;2023-02-12T06:42:40;7.50;72.10
4960;DHT22;2495;48.200;11.532;2023-02-12T06:47:41;7.30;73.90
4960;DHT22;2495;48.200;11.532;2023-02-12T06:52:43;7.30;74.20
4960;DHT22;2495;48.200;11.532;2023-02-12T06:57:44;7.30;75.10
4960;DHT22;2495;48.200;11.532;2023-02-12T07:02:50;7.30;74.40
4960;DHT22;2495;48.200;11.532;2023-02-12T07:07:47;7.30;76.50
4960;DHT22;2495;48.200;11.532;2023-02-12T07:12:48;7.30;75.60
4960;DHT22;2495;48.200;11.532;2023-02-12T07:17:50;7.50;76.10
4960;DHT22;2495;48.200;11.532;2023-02-12T07:22:51;7.50;76.40
4960;DHT22;2495;48.200;11.532;2023-02-12T07:27:52;7.50;77.00
4960;DHT22;2495;48.200;11.532;2023-02-12T07:32:53;7.40;77.30
4960;DHT22;2495;48.200;11.532;2023-02-12T07:37:55;7.60;77.50
4960;DHT22;2495;48.200;11.532;2023-02-12T07:42:56;7.60;77.00
4960;DHT22;2495;48.200;11.532;2023-02-12T07:47:57;8.00;77.80
4960;DHT22;2495;48.200;11.532;2023-02-12T07:52:58;8.10;76.80
4960;DHT22;2495;48.200;11.532;2023-02-12T07:58:00;8.00;77.30
4960;DHT22;2495;48.200;11.532;2023-02-12T08:03:02;8.00;76.90
4960;DHT22;2495;48.200;11.532;2023-02-12T08:08:03;8.00;76.90
4960;DHT22;2495;48.200;11.532;2023-02-12T08:13:04;8.10;77.00
4960;DHT22;2495;48.200;11.532;2023-02-12T08:18:05;8.10;76.90
4960;DHT22;2495;48.200;11.532;2023-02-12T08:23:07;8.10;77.00
4960;DHT22;2495;48.200;11.532;2023-02-12T08:28:08;8.20;76.90
4960;DHT22;2495;48.200;11.532;2023-02-12T08:33:24;8.20;77.00
4960;DHT22;2495;48.200;11.532;2023-02-12T08:38:57;8.30;77.50
4960;DHT22;2495;48.200;11.532;2023-02-12T08:44:23;8.40;77.60
4960;DHT22;2495;48.200;11.532;2023-02-12T08:49:51;8.40;76.90
4960;DHT22;2495;48.200;11.532;2023-02-12T08:55:07;8.50;76.90
4960;DHT22;2495;48.200;11.532;2023-02-12T09:00:18;8.70;76.80
4960;DHT22;2495;48.200;11.532;2023-02-12T09:05:28;8.80;77.00
4960;DHT22;2495;48.200;11.532;2023-02-12T09:10:57;9.20;77.30
4960;DHT22;2495;48.200;11.532;2023-02-12T09:16:36;9.40;76.50
4960;DHT22;2495;48.200;11.532;2023-02-12T09:22:20;9.30;75.50
4960;DHT22;2495;48.200;11.532;2023-02-12T09:28:10;9.30;75.30
4960;DHT22;2495;48.200;11.532;2023-02-12T09:53:15;10.20;74.70
4960;DHT22;2495;48.200;11.532;2023-02-12T10:26:18;10.70;71.60
4960;DHT22;2495;48.200;11.532;2023-02-12T10:31:24;10.70;72.90
4960;DHT22;2495;48.200;11.532;2023-02-12T10:36:31;10.80;71.40
4960;DHT22;2495;48.200;11.532;2023-02-12T10:41:45;10.50;70.90
4960;DHT22;2495;48.200;11.532;2023-02-12T10:47:03;10.20;71.40
4960;DHT22;2495;48.200;11.532;2023-02-12T10:57:35;10.20;72.00
4960;DHT22;2495;48.200;11.532;2023-02-12T11:02:37;10.10;72.40
4960;DHT22;2495;48.200;11.532;2023-02-12T11:07:45;10.30;71.10
4960;DHT22;2495;48.200;11.532;2023-02-12T11:12:40;10.40;71.20
4960;DHT22;2495;48.200;11.532;2023-02-12T11:18:05;10.60;70.70
4960;DHT22;2495;48.200;11.532;2023-02-12T11:23:21;10.60;70.90
4960;DHT22;2495;48.200;11.532;2023-02-12T11:28:14;10.60;70.10
4960;DHT22;2495;48.200;11.532;2023-02-12T11:33:27;10.70;70.10
4960;DHT22;2495;48.200;11.532;2023-02-12T11:38:35;10.90;69.60
4960;DHT22;2495;48.200;11.532;2023-02-12T11:43:38;11.60;67.60
4960;DHT22;2495;48.200;11.532;2023-02-12T11:48:40;11.90;66.20
4960;DHT22;2495;48.200;11.532;2023-02-12T11:53:41;12.40;65.10
4960;DHT22;2495;48.200;11.532;2023-02-12T11:58:44;12.80;65.40
4960;DHT22;2495;48.200;11.532;2023-02-12T12:04:02;13.50;63.00
4960;DHT22;2495;48.200;11.532;2023-02-12T12:14:47;15.50;57.60
4960;DHT22;2495;48.200;11.532;2023-02-12T12:20:40;16.40;55.50
4960;DHT22;2495;48.200;11.532;2023-02-12T12:25:29;16.10;55.30
4960;DHT22;2495;48.200;11.532;2023-02-12T12:30:52;16.00;55.30
4960;DHT22;2495;48.200;11.532;2023-02-12T12:46:57;13.90;58.90
4960;DHT22;2495;48.200;11.532;2023-02-12T12:58:06;13.20;61.30
4960;DHT22;2495;48.200;11.532;2023-02-12T13:08:47;13.00;63.00
4960;DHT22;2495;48.200;11.532;2023-02-12T13:13:47;12.60;62.40
4960;DHT22;2495;48.200;11.532;2023-02-12T13:30:59;16.30;53.60
4960;DHT22;2495;48.200;11.532;2023-02-12T13:36:10;14.70;55.50
4960;DHT22;2495;48.200;11.532;2023-02-12T13:41:11;13.70;57.10
4960;DHT22;2495;48.200;11.532;2023-02-12T13:51:48;13.70;58.60
4960;DHT22;2495;48.200;11.532;2023-02-12T13:57:02;13.20;57.90
4960;DHT22;2495;48.200;11.532;2023-02-12T14:02:04;12.70;59.70
4960;DHT22;2495;48.200;11.532;2023-02-12T14:27:52;11.80;64.00
4960;DHT22;2495;48.200;11.532;2023-02-12T14:43:42;11.60;63.90
4960;DHT22;2495;48.200;11.532;2023-02-12T14:49:02;11.60;62.50
4960;DHT22;2495;48.200;11.532;2023-02-12T14:54:03;11.90;62.20
4960;DHT22;2495;48.200;11.532;2023-02-12T14:59:04;12.20;61.30
4960;DHT22;2495;48.200;11.532;2023-02-12T16:31:12;9.40;74.20
4960;DHT22;2495;48.200;11.532;2023-02-12T20:14:37;6.10;84.50
4960;DHT22;2495;48.200;11.532;2023-02-12T20:19:39;6.10;84.60
4960;DHT22;2495;48.200;11.532;2023-02-12T20:24:45;6.10;83.90
4960;DHT22;2495;48.200;11.532;2023-02-12T20:29:48;6.00;84.80
4960;DHT22;2495;48.200;11.532;2023-02-12T20:34:50;6.10;84.90
4960;DHT22;2495;48.200;11.532;2023-02-12T20:39:51;6.20;85.00
4960;DHT22;2495;48.200;11.532;2023-02-12T20:44:52;6.20;84.30
4960;DHT22;2495;48.200;11.532;2023-02-12T20:49:57;6.20;84.30
4960;DHT22;2495;48.200;11.532;2023-02-12T20:54:58;6.10;84.40
4960;DHT22;2495;48.200;11.532;2023-02-12T21:00:00;6.10;84.80
4960;DHT22;2495;48.200;11.532;2023-02-12T21:05:01;5.90;85.00
4960;DHT22;2495;48.200;11.532;2023-02-12T21:10:02;5.80;84.90
4960;DHT22;2495;48.200;11.532;2023-02-12T21:15:04;5.90;85.60
4960;DHT22;2495;48.200;11.532;2023-02-12T21:20:09;5.90;85.60
4960;DHT22;2495;48.200;11.532;2023-02-12T21:25:13;5.70;85.90
4960;DHT22;2495;48.200;11.532;2023-02-12T21:30:15;5.70;86.10
4960;DHT22;2495;48.200;11.532;2023-02-12T21:35:19;5.60;86.20
4960;DHT22;2495;48.200;11.532;2023-02-12T21:40:21;5.70;86.10
4960;DHT22;2495;48.200;11.532;2023-02-12T21:45:22;5.70;86.40
4960;DHT22;2495;48.200;11.532;2023-02-12T21:50:24;5.70;86.00
4960;DHT22;2495;48.200;11.532;2023-02-12T21:55:26;5.60;85.60
4960;DHT22;2495;48.200;11.532;2023-02-12T22:00:28;5.60;86.10
4960;DHT22;2495;48.200;11.532;2023-02-12T22:05:30;5.60;85.60
4960;DHT22;2495;48.200;11.532;2023-02-12T22:10:31;5.40;85.90
4960;DHT22;2495;48.200;11.532;2023-02-12T22:15:32;5.40;85.90
4960;DHT22;2495;48.200;11.532;2023-02-12T22:20:34;5.30;86.40
4960;DHT22;2495;48.200;11.532;2023-02-12T22:25:35;5.20;86.40
4960;DHT22;2495;48.200;11.532;2023-02-12T22:30:37;5.10;88.20
4960;DHT22;2495;48.200;11.532;2023-02-12T22:35:42;5.10;87.40
4960;DHT22;2495;48.200;11.532;2023-02-12T22:40:53;5.20;87.90
4960;DHT22;2495;48.200;11.532;2023-02-12T22:45:55;5.10;87.90
4960;DHT22;2495;48.200;11.532;2023-02-12T22:50:57;5.10;87.30
4960;DHT22;2495;48.200;11.532;2023-02-12T22:56:00;5.10;87.50
4960;DHT22;2495;48.200;11.532;2023-02-12T23:01:03;5.10;87.50
4960;DHT22;2495;48.200;11.532;2023-02-12T23:06:09;5.10;88.20
4960;DHT22;2495;48.200;11.532;2023-02-12T23:11:09;5.10;87.80
4960;DHT22;2495;48.200;11.532;2023-02-12T23:16:10;5.10;87.90
4960;DHT22;2495;48.200;11.532;2023-02-12T23:21:12;5.20;87.80
4960;DHT22;2495;48.200;11.532;2023-02-12T23:26:13;5.20;87.60
4960;DHT22;2495;48.200;11.532;2023-02-12T23:31:15;5.20;87.60
4960;DHT22;2495;48.200;11.532;2023-02-12T23:36:16;5.30;87.60
4960;DHT22;2495;48.200;11.532;2023-02-12T23:41:18;5.20;87.40
4960;DHT22;2495;48.200;11.532;2023-02-12T23:46:19;5.20;87.60
4960;DHT22;2495;48.200;11.532;2023-02-12T23:51:21;5.30;87.80
4960;DHT22;2495;48.200;11.532;2023-02-12T23:56:23;5.30;87.60
